createdAt,value
2023-04-08T00:00:46.471Z,34.33
2023-04-08T00:03:13.207Z,39.65
2023-04-08T00:05:39.922Z,35.65
2023-04-08T00:08:06.657Z,39.05
2023-04-08T00:10:33.512Z,37.67
2023-04-08T00:13:01.098Z,37.70
2023-04-08T00:15:27.640Z,35.17
2023-04-08T00:17:54.771Z,41.42
2023-04-08T00:20:22.698Z,39.72
2023-04-08T00:22:49.285Z,32.38
2023-04-08T00:25:16.014Z,43.13
2023-04-08T00:27:42.624Z,36.83
2023-04-08T00:30:09.592Z,29.13
2023-04-08T00:32:36.529Z,35.60
2023-04-08T00:35:03.246Z,34.20
2023-04-08T00:37:29.988Z,42.78
2023-04-08T00:39:56.544Z,36.72
2023-04-08T00:42:23.200Z,40.03
2023-04-08T00:44:49.788Z,36.90
2023-04-08T00:47:16.798Z,31.88
2023-04-08T00:49:44.086Z,36.05
2023-04-08T00:52:11.051Z,40.05
2023-04-08T00:54:38.153Z,35.70
2023-04-08T00:57:05.449Z,31.70
2023-04-08T00:59:32.993Z,37.00
2023-04-08T01:02:18.477Z,36.05
2023-04-08T01:04:55.977Z,35.35
2023-04-08T01:07:26.871Z,41.83
2023-04-08T01:09:59.095Z,37.05
2023-04-08T01:12:30.500Z,31.83
2023-04-08T01:15:07.350Z,39.30
2023-04-08T01:17:34.566Z,37.75
2023-04-08T01:20:02.008Z,44.78
2023-04-08T01:22:41.982Z,33.70
2023-04-08T01:25:20.044Z,27.50
2023-04-08T01:27:48.424Z,38.55
2023-04-08T01:30:17.523Z,33.15
2023-04-08T01:32:44.360Z,34.17
2023-04-08T01:35:11.220Z,35.47
2023-04-08T01:37:38.762Z,29.55
2023-04-08T01:40:07.646Z,33.60
2023-04-08T01:42:38.197Z,34.90
2023-04-08T01:45:05.836Z,33.58
2023-04-08T01:47:36.129Z,35.00
2023-04-08T01:50:06.004Z,31.52
2023-04-08T01:52:34.997Z,36.17
2023-04-08T01:55:01.812Z,37.83
2023-04-08T01:57:29.979Z,34.88
2023-04-08T01:59:58.059Z,35.63
2023-04-08T02:02:26.079Z,36.17
2023-04-08T02:04:54.129Z,39.90
2023-04-08T02:07:20.914Z,35.50
2023-04-08T02:09:47.532Z,28.90
2023-04-08T02:12:14.161Z,33.28
2023-04-08T02:14:41.057Z,40.25
2023-04-08T02:17:19.619Z,34.05
2023-04-08T02:19:52.797Z,42.00
2023-04-08T02:22:38.176Z,28.13
2023-04-08T02:25:04.872Z,29.42
2023-04-08T02:27:34.096Z,31.63
2023-04-08T02:30:03.195Z,27.55
2023-04-08T02:32:30.901Z,35.20
2023-04-08T02:34:58.283Z,31.85
2023-04-08T02:37:25.319Z,37.47
2023-04-08T02:39:51.968Z,39.40
2023-04-08T02:42:18.489Z,42.63
2023-04-08T02:44:45.239Z,35.83
2023-04-08T02:47:11.771Z,27.77
2023-04-08T02:49:38.406Z,34.88
2023-04-08T02:52:05.053Z,33.78
2023-04-08T02:54:31.693Z,27.42
2023-04-08T02:56:58.306Z,32.08
2023-04-08T02:59:24.874Z,25.45
2023-04-08T03:01:51.463Z,28.95
2023-04-08T03:04:18.111Z,46.47
2023-04-08T03:06:44.668Z,29.98
2023-04-08T03:09:11.389Z,32.63
2023-04-08T03:11:37.918Z,35.92
2023-04-08T03:14:04.537Z,34.38
2023-04-08T03:16:31.317Z,26.02
2023-04-08T03:18:58.005Z,44.33
2023-04-08T03:21:24.892Z,34.03
2023-04-08T03:23:51.530Z,31.10
2023-04-08T03:26:18.151Z,32.53
2023-04-08T03:28:44.700Z,24.10
2023-04-08T03:31:11.470Z,33.10
2023-04-08T03:33:38.027Z,31.75
2023-04-08T03:36:05.167Z,37.90
2023-04-08T03:38:31.832Z,25.13
2023-04-08T03:40:58.628Z,30.08
2023-04-08T03:43:25.769Z,29.40
2023-04-08T03:45:52.386Z,31.98
2023-04-08T03:48:19.335Z,28.63
2023-04-08T03:50:45.977Z,31.63
2023-04-08T03:53:12.979Z,30.27
2023-04-08T03:55:39.722Z,29.02
2023-04-08T03:58:06.534Z,28.83
2023-04-08T04:00:33.158Z,25.23
2023-04-08T04:02:59.751Z,30.83
2023-04-08T04:05:26.535Z,37.72
2023-04-08T04:07:53.268Z,32.90
2023-04-08T04:10:19.925Z,30.92
2023-04-08T04:12:47.617Z,26.80
2023-04-08T04:15:14.240Z,20.17
2023-04-08T04:17:40.829Z,25.60
2023-04-08T04:20:07.719Z,31.23
2023-04-08T04:22:34.251Z,25.17
2023-04-08T04:25:00.802Z,35.63
2023-04-08T04:27:27.319Z,30.10
2023-04-08T04:29:53.830Z,28.70
2023-04-08T04:32:20.656Z,21.08
2023-04-08T04:34:47.371Z,23.70
2023-04-08T04:37:13.916Z,22.92
2023-04-08T04:39:40.560Z,30.25
2023-04-08T04:42:07.191Z,30.70
2023-04-08T04:44:33.832Z,25.50
2023-04-08T04:47:00.390Z,31.08
2023-04-08T04:49:27.032Z,30.80
2023-04-08T04:51:53.518Z,23.23
2023-04-08T04:54:20.105Z,26.30
2023-04-08T04:56:46.869Z,30.33
2023-04-08T04:59:13.470Z,26.50
2023-04-08T05:01:41.122Z,23.23
2023-04-08T05:04:07.903Z,16.73
2023-04-08T05:06:34.956Z,30.13
2023-04-08T05:09:01.706Z,29.23
2023-04-08T05:11:28.282Z,25.13
2023-04-08T05:13:54.928Z,27.20
2023-04-08T05:16:21.494Z,20.85
2023-04-08T05:18:48.246Z,27.75
2023-04-08T05:21:15.039Z,23.27
2023-04-08T05:23:41.615Z,25.17
2023-04-08T05:26:08.916Z,30.38
2023-04-08T05:28:35.708Z,31.20
2023-04-08T05:31:03.865Z,28.60
2023-04-08T05:33:30.573Z,39.40
2023-04-08T05:35:57.161Z,29.05
2023-04-08T05:38:23.926Z,36.00
2023-04-08T05:40:50.605Z,27.58
2023-04-08T05:43:17.180Z,24.95
2023-04-08T05:45:43.726Z,28.55
2023-04-08T05:48:10.550Z,26.17
2023-04-08T05:50:37.192Z,21.63
2023-04-08T05:53:03.823Z,22.50
2023-04-08T05:55:30.368Z,22.00
2023-04-08T05:57:56.997Z,25.48
2023-04-08T06:00:23.716Z,28.45
2023-04-08T06:02:50.691Z,28.08
2023-04-08T06:05:19.138Z,32.47
2023-04-08T06:07:45.769Z,31.88
2023-04-08T06:10:12.310Z,32.15
2023-04-08T06:12:39.514Z,23.02
2023-04-08T06:15:07.223Z,26.20
2023-04-08T06:17:36.093Z,28.13
2023-04-08T06:20:03.636Z,32.60
2023-04-08T06:22:30.371Z,26.40
2023-04-08T06:24:59.534Z,32.63
2023-04-08T06:27:26.406Z,28.88
2023-04-08T06:29:53.371Z,27.58
2023-04-08T06:32:20.470Z,33.78
2023-04-08T06:34:47.395Z,28.10
2023-04-08T06:37:14.278Z,49.78
2023-04-08T06:39:42.228Z,30.80
2023-04-08T06:42:08.867Z,32.15
2023-04-08T06:44:45.089Z,29.80
2023-04-08T06:47:11.719Z,30.48
2023-04-08T06:49:38.252Z,27.20
2023-04-08T06:52:06.759Z,28.75
2023-04-08T06:54:33.374Z,24.60
2023-04-08T06:56:59.980Z,26.52
2023-04-08T06:59:26.478Z,31.40
2023-04-08T07:01:53.132Z,31.35
2023-04-08T07:04:19.908Z,19.70
2023-04-08T07:06:46.751Z,40.83
2023-04-08T07:09:13.400Z,26.55
2023-04-08T07:11:39.996Z,27.60
2023-04-08T07:14:06.593Z,25.85
2023-04-08T07:16:33.220Z,22.52
2023-04-08T07:18:59.851Z,19.77
2023-04-08T07:21:27.113Z,26.98
2023-04-08T07:23:53.780Z,27.35
2023-04-08T07:26:20.389Z,21.13
2023-04-08T07:28:47.056Z,28.10
2023-04-08T07:31:16.888Z,22.77
2023-04-08T07:33:43.800Z,27.17
2023-04-08T07:36:11.587Z,23.17
2023-04-08T07:38:38.691Z,29.17
2023-04-08T07:41:05.859Z,22.38
2023-04-08T07:43:34.394Z,22.98
2023-04-08T07:46:02.751Z,23.25
2023-04-08T07:48:30.320Z,24.30
2023-04-08T07:51:09.952Z,24.58
2023-04-08T07:53:38.807Z,26.75
2023-04-08T07:56:11.679Z,18.63
2023-04-08T07:58:38.660Z,25.92
2023-04-08T08:01:05.500Z,28.48
2023-04-08T08:03:33.878Z,28.90
2023-04-08T08:06:00.793Z,24.98
2023-04-08T08:08:27.560Z,25.80
2023-04-08T08:10:54.079Z,22.58
2023-04-08T08:13:22.187Z,22.75
2023-04-08T08:15:52.637Z,30.48
2023-04-08T08:18:19.465Z,23.55
2023-04-08T08:20:46.075Z,36.88
2023-04-08T08:23:12.723Z,24.05
2023-04-08T08:25:39.305Z,22.48
2023-04-08T08:28:06.448Z,26.27
2023-04-08T08:30:34.060Z,30.35
2023-04-08T08:33:01.191Z,22.63
2023-04-08T08:35:27.737Z,27.38
2023-04-08T08:37:54.318Z,22.38
2023-04-08T08:40:20.861Z,25.17
2023-04-08T08:42:52.374Z,23.98
2023-04-08T08:45:22.150Z,30.33
2023-04-08T08:47:50.967Z,25.48
2023-04-08T08:50:18.599Z,18.75
2023-04-08T08:52:48.903Z,28.88
2023-04-08T08:55:32.614Z,23.40
2023-04-08T08:58:02.955Z,29.90
2023-04-08T09:00:36.537Z,23.70
2023-04-08T09:03:23.011Z,27.13
2023-04-08T09:05:51.241Z,30.55
2023-04-08T09:08:28.916Z,18.38
2023-04-08T09:10:57.246Z,19.83
2023-04-08T09:13:24.817Z,20.27
2023-04-08T09:16:01.588Z,21.40
2023-04-08T09:18:28.153Z,21.23
2023-04-08T09:20:54.701Z,24.60
2023-04-08T09:23:21.328Z,27.77
2023-04-08T09:25:47.886Z,20.98
2023-04-08T09:28:21.465Z,19.92
2023-04-08T09:30:48.156Z,22.27
2023-04-08T09:33:14.686Z,30.15
2023-04-08T09:35:41.478Z,35.42
2023-04-08T09:38:08.126Z,26.55
2023-04-08T09:40:37.916Z,21.77
2023-04-08T09:43:05.713Z,32.67
2023-04-08T09:45:34.331Z,18.27
2023-04-08T09:48:06.318Z,23.70
2023-04-08T09:50:35.940Z,23.17
2023-04-08T09:53:09.743Z,27.65
2023-04-08T09:55:37.558Z,22.55
2023-04-08T09:58:08.030Z,23.58
2023-04-08T10:00:38.789Z,21.48
2023-04-08T10:03:05.594Z,23.17
2023-04-08T10:05:33.420Z,22.23
2023-04-08T10:08:00.292Z,21.95
2023-04-08T10:10:27.420Z,26.25
2023-04-08T10:12:54.413Z,23.17
2023-04-08T10:15:25.074Z,25.75
2023-04-08T10:17:55.453Z,21.13
2023-04-08T10:20:33.985Z,15.17
2023-04-08T10:23:00.969Z,21.02
2023-04-08T10:25:41.510Z,24.05
2023-04-08T10:28:11.420Z,15.17
2023-04-08T10:30:37.987Z,22.38
2023-04-08T10:33:10.297Z,19.20
2023-04-08T10:35:37.149Z,21.10
2023-04-08T10:38:03.814Z,13.98
2023-04-08T10:40:37.508Z,24.13
2023-04-08T10:43:05.470Z,25.08
2023-04-08T10:45:32.027Z,32.92
2023-04-08T10:48:11.346Z,20.00
2023-04-08T10:50:37.948Z,20.70
2023-04-08T10:53:06.937Z,21.17
2023-04-08T10:55:36.349Z,20.30
2023-04-08T10:58:08.076Z,19.63
2023-04-08T11:00:35.633Z,20.23
2023-04-08T11:03:09.516Z,19.98
2023-04-08T11:05:37.533Z,24.00
2023-04-08T11:08:04.890Z,24.02
2023-04-08T11:10:31.985Z,15.90
2023-04-08T11:12:58.578Z,22.85
2023-04-08T11:15:25.532Z,15.50
2023-04-08T11:17:52.185Z,19.25
2023-04-08T11:20:19.135Z,23.08
2023-04-08T11:22:45.677Z,19.60
2023-04-08T11:25:12.389Z,21.60
2023-04-08T11:27:39.621Z,21.33
2023-04-08T11:30:09.608Z,17.33
2023-04-08T11:32:36.618Z,21.45
2023-04-08T11:35:06.427Z,17.52
2023-04-08T11:37:36.647Z,20.58
2023-04-08T11:40:06.626Z,14.40
2023-04-08T11:42:33.414Z,21.38
2023-04-08T11:45:00.011Z,17.33
2023-04-08T11:47:33.582Z,21.48
2023-04-08T11:50:01.745Z,18.75
2023-04-08T11:52:41.864Z,20.83
2023-04-08T11:55:09.746Z,19.95
2023-04-08T11:57:36.365Z,22.30
2023-04-08T12:00:05.711Z,20.65
2023-04-08T12:02:37.520Z,19.65
2023-04-08T12:05:04.284Z,23.83
2023-04-08T12:07:30.866Z,20.42
2023-04-08T12:09:57.491Z,23.15
2023-04-08T12:12:24.067Z,19.75
2023-04-08T12:14:50.702Z,16.52
2023-04-08T12:17:17.194Z,15.77
2023-04-08T12:19:43.913Z,21.75
2023-04-08T12:22:10.473Z,21.27
2023-04-08T12:24:37.127Z,22.27
2023-04-08T12:27:05.047Z,20.25
2023-04-08T12:29:31.855Z,20.42
2023-04-08T12:31:58.561Z,26.35
2023-04-08T12:34:27.496Z,21.52
2023-04-08T12:36:55.556Z,14.60
2023-04-08T12:39:22.348Z,17.35
2023-04-08T12:41:48.844Z,21.73
2023-04-08T12:44:15.561Z,20.58
2023-04-08T12:46:45.423Z,22.98
2023-04-08T12:49:12.541Z,24.58
2023-04-08T12:51:40.093Z,18.73
2023-04-08T12:54:06.859Z,18.08
2023-04-08T12:56:33.912Z,16.25
2023-04-08T12:59:01.118Z,15.38
2023-04-08T13:01:28.201Z,20.38
2023-04-08T13:03:55.530Z,29.30
2023-04-08T13:06:22.362Z,18.60
2023-04-08T13:08:51.041Z,19.20
2023-04-08T13:11:17.790Z,21.08
2023-04-08T13:13:46.407Z,15.63
2023-04-08T13:16:14.350Z,18.67
2023-04-08T13:18:41.328Z,21.92
2023-04-08T13:21:08.232Z,21.92
2023-04-08T13:23:37.925Z,22.55
2023-04-08T13:26:04.576Z,16.73
2023-04-08T13:28:31.231Z,16.52
2023-04-08T13:30:57.837Z,22.40
2023-04-08T13:33:24.406Z,17.27
2023-04-08T13:35:51.076Z,20.13
2023-04-08T13:38:17.968Z,22.50
2023-04-08T13:40:45.977Z,23.52
2023-04-08T13:43:14.601Z,17.30
2023-04-08T13:45:41.861Z,21.52
2023-04-08T13:48:08.806Z,22.40
2023-04-08T13:50:35.452Z,27.33
2023-04-08T13:53:02.274Z,23.90
2023-04-08T13:55:28.782Z,25.92
2023-04-08T13:57:55.416Z,18.23
2023-04-08T14:00:22.571Z,15.52
2023-04-08T14:02:51.048Z,18.48
2023-04-08T14:05:18.003Z,17.20
2023-04-08T14:07:44.629Z,21.73
2023-04-08T14:10:11.410Z,22.48
2023-04-08T14:12:39.189Z,15.95
2023-04-08T14:15:06.030Z,20.73
2023-04-08T14:17:33.104Z,18.17
2023-04-08T14:20:01.069Z,23.25
2023-04-08T14:22:27.684Z,19.70
2023-04-08T14:24:54.235Z,18.95
2023-04-08T14:27:20.847Z,16.15
2023-04-08T14:29:47.448Z,19.10
2023-04-08T14:32:14.080Z,13.27
2023-04-08T14:34:40.732Z,19.23
2023-04-08T14:37:07.460Z,19.38
2023-04-08T14:39:34.141Z,20.00
2023-04-08T14:42:01.903Z,18.67
2023-04-08T14:44:28.570Z,17.15
2023-04-08T14:46:55.194Z,19.45
2023-04-08T14:49:21.820Z,20.45
2023-04-08T14:51:48.343Z,17.75
2023-04-08T14:54:16.746Z,21.45
2023-04-08T14:56:43.263Z,15.77
2023-04-08T14:59:09.944Z,13.82
2023-04-08T15:01:36.628Z,17.65
2023-04-08T15:04:06.956Z,21.02
2023-04-08T15:06:33.584Z,16.67
2023-04-08T15:09:00.268Z,16.85
2023-04-08T15:11:26.922Z,19.40
2023-04-08T15:13:53.516Z,17.05
2023-04-08T15:16:20.170Z,17.92
2023-04-08T15:18:46.854Z,15.25
2023-04-08T15:21:13.414Z,18.95
2023-04-08T15:23:43.596Z,14.77
2023-04-08T15:26:11.044Z,13.82
2023-04-08T15:28:38.203Z,14.52
2023-04-08T15:31:05.751Z,17.73
2023-04-08T15:33:32.331Z,11.88
2023-04-08T15:36:00.087Z,16.05
2023-04-08T15:38:27.226Z,17.35
2023-04-08T15:40:53.821Z,17.52
2023-04-08T15:43:20.518Z,14.07
2023-04-08T15:45:48.274Z,18.13
2023-04-08T15:48:16.573Z,16.15
2023-04-08T15:50:43.194Z,16.58
2023-04-08T15:53:11.533Z,13.90
2023-04-08T15:55:39.238Z,18.33
2023-04-08T15:58:05.996Z,12.00
2023-04-08T16:00:32.623Z,17.00
2023-04-08T16:02:59.326Z,19.20
2023-04-08T16:05:27.695Z,15.98
2023-04-08T16:07:56.409Z,14.70
2023-04-08T16:10:22.935Z,14.55
2023-04-08T16:12:49.527Z,17.25
2023-04-08T16:15:16.338Z,15.63
2023-04-08T16:17:43.249Z,15.52
2023-04-08T16:20:10.104Z,17.20
2023-04-08T16:22:36.897Z,11.38
2023-04-08T16:25:03.471Z,17.50
2023-04-08T16:27:30.072Z,16.25
2023-04-08T16:29:57.854Z,20.52
2023-04-08T16:32:24.734Z,13.65
2023-04-08T16:34:51.625Z,13.70
2023-04-08T16:37:18.239Z,15.38
2023-04-08T16:39:44.818Z,20.10
2023-04-08T16:42:11.636Z,21.58
2023-04-08T16:44:38.219Z,15.70
2023-04-08T16:47:04.897Z,17.88
2023-04-08T16:49:31.453Z,19.70
2023-04-08T16:51:58.388Z,19.35
2023-04-08T16:54:25.340Z,15.55
2023-04-08T16:56:52.079Z,14.73
2023-04-08T16:59:18.713Z,11.82
2023-04-08T17:01:45.352Z,16.27
2023-04-08T17:04:11.941Z,16.63
2023-04-08T17:06:40.779Z,16.00
2023-04-08T17:09:09.106Z,18.95
2023-04-08T17:11:35.790Z,14.50
2023-04-08T17:14:02.651Z,18.15
2023-04-08T17:16:29.309Z,19.75
2023-04-08T17:18:56.185Z,13.63
2023-04-08T17:21:22.832Z,15.23
2023-04-08T17:23:49.652Z,15.05
2023-04-08T17:26:16.318Z,11.27
2023-04-08T17:28:43.470Z,18.63
2023-04-08T17:31:10.701Z,11.68
2023-04-08T17:33:37.431Z,15.88
2023-04-08T17:36:04.218Z,14.13
2023-04-08T17:38:30.992Z,17.63
2023-04-08T17:40:57.697Z,17.98
2023-04-08T17:43:24.384Z,19.35
2023-04-08T17:45:51.686Z,26.85
2023-04-08T17:48:18.852Z,17.90
2023-04-08T17:50:45.592Z,23.85
2023-04-08T17:53:12.200Z,20.00
2023-04-08T17:55:38.730Z,19.85
2023-04-08T17:58:05.296Z,17.55
2023-04-08T18:00:31.836Z,17.98
2023-04-08T18:02:58.657Z,18.80
2023-04-08T18:05:25.418Z,22.60
2023-04-08T18:07:52.069Z,24.02
2023-04-08T18:10:18.795Z,23.13
2023-04-08T18:12:45.821Z,17.92
2023-04-08T18:15:12.552Z,16.75
2023-04-08T18:17:39.128Z,17.80
2023-04-08T18:20:06.130Z,12.88
2023-04-08T18:22:32.717Z,14.50
2023-04-08T18:25:00.748Z,18.98
2023-04-08T18:27:27.338Z,20.80
2023-04-08T18:29:55.360Z,18.25
2023-04-08T18:32:22.284Z,19.58
2023-04-08T18:34:52.495Z,15.70
2023-04-08T18:37:23.051Z,22.15
2023-04-08T18:39:49.948Z,13.88
2023-04-08T18:42:16.731Z,30.48
2023-04-08T18:44:43.335Z,23.05
2023-04-08T18:47:10.034Z,26.30
2023-04-08T18:49:38.641Z,15.95
2023-04-08T18:52:06.727Z,23.98
2023-04-08T18:54:33.360Z,16.45
2023-04-08T18:56:59.996Z,19.85
2023-04-08T18:59:30.079Z,19.92
2023-04-08T19:01:57.461Z,17.73
2023-04-08T19:04:24.312Z,11.70
2023-04-08T19:06:51.489Z,13.10
2023-04-08T19:09:18.020Z,15.80
2023-04-08T19:11:44.554Z,13.75
2023-04-08T19:14:11.241Z,13.05
2023-04-08T19:16:40.801Z,13.30
2023-04-08T19:19:08.278Z,19.63
2023-04-08T19:21:37.749Z,19.55
2023-04-08T19:24:06.262Z,10.23
2023-04-08T19:26:33.853Z,20.02
2023-04-08T19:29:01.182Z,16.50
2023-04-08T19:31:28.093Z,13.40
2023-04-08T19:33:54.622Z,14.80
2023-04-08T19:36:21.297Z,13.35
2023-04-08T19:38:48.079Z,14.95
2023-04-08T19:41:14.651Z,12.73
2023-04-08T19:43:41.177Z,18.38
2023-04-08T19:46:07.825Z,14.95
2023-04-08T19:48:34.814Z,15.23
2023-04-08T19:51:01.433Z,11.82
2023-04-08T19:53:27.986Z,15.30
2023-04-08T19:56:01.377Z,10.07
2023-04-08T19:58:28.020Z,13.00
2023-04-08T20:00:54.569Z,14.55
2023-04-08T20:03:21.828Z,15.23
2023-04-08T20:05:48.615Z,13.93
2023-04-08T20:08:15.720Z,21.40
2023-04-08T20:10:42.605Z,13.85
2023-04-08T20:13:09.218Z,13.50
2023-04-08T20:15:35.813Z,15.73
2023-04-08T20:18:02.451Z,14.20
2023-04-08T20:20:29.977Z,15.88
2023-04-08T20:22:56.686Z,14.85
2023-04-08T20:25:23.259Z,17.33
2023-04-08T20:27:50.382Z,17.10
2023-04-08T20:30:17.108Z,18.98
2023-04-08T20:32:44.267Z,12.35
2023-04-08T20:35:11.058Z,16.65
2023-04-08T20:37:38.002Z,12.20
2023-04-08T20:40:05.168Z,19.95
2023-04-08T20:42:32.014Z,13.23
2023-04-08T20:44:58.677Z,12.23
2023-04-08T20:47:28.277Z,18.13
2023-04-08T20:49:54.849Z,11.43
2023-04-08T20:52:21.410Z,12.98
2023-04-08T20:54:47.971Z,16.67
2023-04-08T20:57:14.515Z,13.10
2023-04-08T20:59:41.912Z,10.73
2023-04-08T21:02:10.285Z,12.27
2023-04-08T21:04:37.580Z,13.50
2023-04-08T21:07:04.197Z,15.32
2023-04-08T21:09:30.717Z,15.40
2023-04-08T21:11:57.559Z,13.70
2023-04-08T21:14:24.133Z,9.55
2023-04-08T21:16:50.722Z,19.77
2023-04-08T21:19:17.279Z,22.90
2023-04-08T21:21:45.424Z,12.30
2023-04-08T21:24:17.855Z,9.40
2023-04-08T21:26:44.599Z,8.80
2023-04-08T21:29:11.601Z,11.18
2023-04-08T21:31:39.767Z,12.63
2023-04-08T21:34:06.533Z,11.60
2023-04-08T21:36:33.108Z,9.20
2023-04-08T21:38:59.685Z,17.33
2023-04-08T21:41:27.803Z,17.45
2023-04-08T21:43:57.148Z,12.98
2023-04-08T21:46:23.872Z,13.50
2023-04-08T21:48:50.767Z,13.20
2023-04-08T21:51:17.902Z,12.40
2023-04-08T21:53:44.800Z,15.68
2023-04-08T21:56:11.607Z,15.93
2023-04-08T21:58:38.214Z,17.60
2023-04-08T22:01:04.798Z,15.02
2023-04-08T22:03:31.682Z,9.25
2023-04-08T22:05:58.377Z,14.63
2023-04-08T22:08:25.056Z,10.30
2023-04-08T22:10:51.827Z,10.30
2023-04-08T22:13:21.660Z,14.27
2023-04-08T22:15:49.653Z,13.05
2023-04-08T22:18:16.275Z,10.90
2023-04-08T22:20:42.840Z,12.00
2023-04-08T22:23:09.383Z,18.23
2023-04-08T22:25:35.993Z,15.27
2023-04-08T22:28:02.590Z,7.97
2023-04-08T22:30:29.966Z,12.98
2023-04-08T22:32:56.653Z,8.73
2023-04-08T22:35:23.391Z,9.88
2023-04-08T22:37:49.884Z,10.98
2023-04-08T22:40:16.674Z,11.80
2023-04-08T22:42:43.175Z,14.77
2023-04-08T22:45:09.950Z,11.07
2023-04-08T22:47:37.482Z,11.20
2023-04-08T22:50:04.354Z,8.90
2023-04-08T22:52:30.967Z,9.00
2023-04-08T22:54:57.605Z,6.63
2023-04-08T22:57:24.252Z,11.20
2023-04-08T22:59:50.787Z,8.50
2023-04-08T23:02:17.655Z,7.47
2023-04-08T23:04:44.306Z,10.48
2023-04-08T23:07:10.974Z,4.80
2023-04-08T23:09:37.578Z,11.52
2023-04-08T23:12:04.335Z,6.78
2023-04-08T23:14:34.023Z,7.32
2023-04-08T23:17:01.324Z,8.55
2023-04-08T23:19:28.297Z,8.25
2023-04-08T23:21:54.800Z,9.68
2023-04-08T23:24:21.446Z,11.30
2023-04-08T23:26:48.827Z,6.80
2023-04-08T23:29:15.754Z,9.07
2023-04-08T23:31:42.560Z,8.77
2023-04-08T23:34:09.368Z,11.05
2023-04-08T23:36:35.998Z,10.40
2023-04-08T23:39:02.722Z,9.55
2023-04-08T23:41:29.233Z,10.93
2023-04-08T23:43:55.875Z,9.77
2023-04-08T23:46:22.422Z,8.93
2023-04-08T23:48:49.132Z,10.05
2023-04-08T23:51:16.078Z,6.85
2023-04-08T23:53:42.843Z,9.32
2023-04-08T23:56:09.764Z,12.68
2023-04-08T23:58:36.453Z,11.27
